sensor_id;sensor_type;location;lat;lon;timestamp;temperature;humidity
5200;DHT22;2619;47.868;11.892;2023-02-27T00:01:29;-2.60;99.90
5200;DHT22;2619;47.868;11.892;2023-02-27T00:03:55;-2.60;99.90
5200;DHT22;2619;47.868;11.892;2023-02-27T00:06:21;-2.50;99.90
5200;DHT22;2619;47.868;11.892;2023-02-27T00:08:47;-2.60;99.90
5200;DHT22;2619;47.868;11.892;2023-02-27T00:11:12;-2.60;99.90
5200;DHT22;2619;47.868;11.892;2023-02-27T00:13:38;-2.60;99.90
5200;DHT22;2619;47.868;11.892;2023-02-27T00:16:04;-2.60;99.90
5200;DHT22;2619;47.868;11.892;2023-02-27T00:18:30;-2.60;99.90
5200;DHT22;2619;47.868;11.892;2023-02-27T00:20:56;-2.60;99.90
5200;DHT22;2619;47.868;11.892;2023-02-27T00:23:21;-2.60;99.90
5200;DHT22;2619;47.868;11.892;2023-02-27T00:25:47;-2.60;99.90
5200;DHT22;2619;47.868;11.892;2023-02-27T00:28:12;-2.60;99.90
5200;DHT22;2619;47.868;11.892;2023-02-27T00:30:38;-2.60;99.90
5200;DHT22;2619;47.868;11.892;2023-02-27T00:33:04;-2.60;99.90
5200;DHT22;2619;47.868;11.892;2023-02-27T00:35:29;-2.70;99.90
5200;DHT22;2619;47.868;11.892;2023-02-27T00:37:55;-2.70;99.90
5200;DHT22;2619;47.868;11.892;2023-02-27T00:40:20;-2.70;99.90
5200;DHT22;2619;47.868;11.892;2023-02-27T00:42:50;-2.70;99.90
5200;DHT22;2619;47.868;11.892;2023-02-27T00:45:15;-2.70;99.90
5200;DHT22;2619;47.868;11.892;2023-02-27T00:47:41;-2.70;99.90
5200;DHT22;2619;47.868;11.892;2023-02-27T00:50:07;-2.70;99.90
5200;DHT22;2619;47.868;11.892;2023-02-27T00:52:33;-2.70;99.90
5200;DHT22;2619;47.868;11.892;2023-02-27T00:54:59;-2.70;99.90
5200;DHT22;2619;47.868;11.892;2023-02-27T00:57:25;-2.70;99.90
5200;DHT22;2619;47.868;11.892;2023-02-27T00:59:50;-2.70;99.90
5200;DHT22;2619;47.868;11.892;2023-02-27T01:02:16;-2.70;99.90
5200;DHT22;2619;47.868;11.892;2023-02-27T01:04:42;-2.80;99.90
5200;DHT22;2619;47.868;11.892;2023-02-27T01:07:08;-2.80;99.90
5200;DHT22;2619;47.868;11.892;2023-02-27T01:09:33;-2.80;99.90
5200;DHT22;2619;47.868;11.892;2023-02-27T01:11:59;-2.80;99.90
5200;DHT22;2619;47.868;11.892;2023-02-27T01:14:25;-2.90;99.90
5200;DHT22;2619;47.868;11.892;2023-02-27T01:16:51;-2.90;99.90
5200;DHT22;2619;47.868;11.892;2023-02-27T01:19:16;-2.80;99.90
5200;DHT22;2619;47.868;11.892;2023-02-27T01:21:43;-2.80;99.90
5200;DHT22;2619;47.868;11.892;2023-02-27T01:24:09;-2.70;99.90
5200;DHT22;2619;47.868;11.892;2023-02-27T01:26:35;-2.70;99.90
5200;DHT22;2619;47.868;11.892;2023-02-27T01:29:00;-2.60;99.90
5200;DHT22;2619;47.868;11.892;2023-02-27T01:31:26;-2.60;99.90
5200;DHT22;2619;47.868;11.892;2023-02-27T01:33:52;-2.80;99.90
5200;DHT22;2619;47.868;11.892;2023-02-27T01:36:17;-2.90;99.90
5200;DHT22;2619;47.868;11.892;2023-02-27T01:38:43;-2.80;99.90
5200;DHT22;2619;47.868;11.892;2023-02-27T01:41:09;-2.80;99.90
5200;DHT22;2619;47.868;11.892;2023-02-27T01:43:59;-2.70;99.90
5200;DHT22;2619;47.868;11.892;2023-02-27T01:46:27;-2.70;99.90
5200;DHT22;2619;47.868;11.892;2023-02-27T01:48:57;-2.70;99.90
5200;DHT22;2619;47.868;11.892;2023-02-27T01:51:26;-2.70;99.90
5200;DHT22;2619;47.868;11.892;2023-02-27T01:53:55;-2.60;99.90
5200;DHT22;2619;47.868;11.892;2023-02-27T01:56:28;-2.60;99.90
5200;DHT22;2619;47.868;11.892;2023-02-27T01:58:59;-2.60;99.90
5200;DHT22;2619;47.868;11.892;2023-02-27T02:01:26;-2.60;99.90
5200;DHT22;2619;47.868;11.892;2023-02-27T02:04:09;-2.50;99.90
5200;DHT22;2619;47.868;11.892;2023-02-27T02:06:39;-2.40;99.90
5200;DHT22;2619;47.868;11.892;2023-02-27T02:09:07;-2.40;99.90
5200;DHT22;2619;47.868;11.892;2023-02-27T02:11:34;-2.40;99.90
5200;DHT22;2619;47.868;11.892;2023-02-27T02:14:01;-2.40;99.90
5200;DHT22;2619;47.868;11.892;2023-02-27T02:24:53;-2.30;99.90
5200;DHT22;2619;47.868;11.892;2023-02-27T02:36:24;-2.50;99.90
5200;DHT22;2619;47.868;11.892;2023-02-27T02:39:08;-2.60;99.90
5200;DHT22;2619;47.868;11.892;2023-02-27T02:44:37;-2.70;99.90
5200;DHT22;2619;47.868;11.892;2023-02-27T02:49:48;-2.70;99.90
5200;DHT22;2619;47.868;11.892;2023-02-27T03:00:47;-2.60;99.90
5200;DHT22;2619;47.868;11.892;2023-02-27T03:03:27;-2.60;99.90
5200;DHT22;2619;47.868;11.892;2023-02-27T03:06:01;-2.70;99.90
5200;DHT22;2619;47.868;11.892;2023-02-27T03:08:32;-2.60;99.90
5200;DHT22;2619;47.868;11.892;2023-02-27T03:11:00;-2.60;99.90
5200;DHT22;2619;47.868;11.892;2023-02-27T03:16:57;-2.60;99.90
5200;DHT22;2619;47.868;11.892;2023-02-27T03:19:14;-2.60;99.90
5200;DHT22;2619;47.868;11.892;2023-02-27T03:21:54;-2.60;99.90
5200;DHT22;2619;47.868;11.892;2023-02-27T03:24:28;-2.50;99.90
5200;DHT22;2619;47.868;11.892;2023-02-27T03:26:56;-2.50;99.90
5200;DHT22;2619;47.868;11.892;2023-02-27T03:29:41;-2.60;99.90
5200;DHT22;2619;47.868;11.892;2023-02-27T03:32:26;-2.60;99.90
5200;DHT22;2619;47.868;11.892;2023-02-27T03:34:53;-2.50;99.90
5200;DHT22;2619;47.868;11.892;2023-02-27T03:40:47;-2.50;99.90
5200;DHT22;2619;47.868;11.892;2023-02-27T03:46:22;-2.50;99.90
5200;DHT22;2619;47.868;11.892;2023-02-27T03:48:49;-2.50;99.90
5200;DHT22;2619;47.868;11.892;2023-02-27T03:51:23;-2.40;99.90
5200;DHT22;2619;47.868;11.892;2023-02-27T03:53:59;-2.50;99.90
5200;DHT22;2619;47.868;11.892;2023-02-27T03:59:17;-2.50;99.90
5200;DHT22;2619;47.868;11.892;2023-02-27T04:01:43;-2.50;99.90
5200;DHT22;2619;47.868;11.892;2023-02-27T04:04:12;-2.40;99.90
5200;DHT22;2619;47.868;11.892;2023-02-27T04:06:39;-2.40;99.90
5200;DHT22;2619;47.868;11.892;2023-02-27T04:12:07;-2.50;99.90
5200;DHT22;2619;47.868;11.892;2023-02-27T04:17:18;-2.50;99.90
5200;DHT22;2619;47.868;11.892;2023-02-27T04:22:33;-2.50;99.90
5200;DHT22;2619;47.868;11.892;2023-02-27T04:27:58;-2.50;99.90
5200;DHT22;2619;47.868;11.892;2023-02-27T04:30:53;-2.50;99.90
5200;DHT22;2619;47.868;11.892;2023-02-27T04:39:17;-2.50;99.90
5200;DHT22;2619;47.868;11.892;2023-02-27T04:41:46;-2.50;99.90
5200;DHT22;2619;47.868;11.892;2023-02-27T04:44:15;-2.50;99.90
5200;DHT22;2619;47.868;11.892;2023-02-27T04:46:42;-2.50;99.90
5200;DHT22;2619;47.868;11.892;2023-02-27T04:49:18;-2.50;99.90
5200;DHT22;2619;47.868;11.892;2023-02-27T04:52:04;-2.50;99.90
5200;DHT22;2619;47.868;11.892;2023-02-27T04:54:44;-2.60;99.90
5200;DHT22;2619;47.868;11.892;2023-02-27T04:57:18;-2.60;99.90
5200;DHT22;2619;47.868;11.892;2023-02-27T04:59:51;-2.60;99.90
5200;DHT22;2619;47.868;11.892;2023-02-27T05:02:27;-2.60;99.90
5200;DHT22;2619;47.868;11.892;2023-02-27T05:05:00;-2.60;99.90
5200;DHT22;2619;47.868;11.892;2023-02-27T05:07:38;-2.60;99.90
5200;DHT22;2619;47.868;11.892;2023-02-27T05:10:14;-2.60;99.90
5200;DHT22;2619;47.868;11.892;2023-02-27T05:12:47;-2.60;99.90
5200;DHT22;2619;47.868;11.892;2023-02-27T05:15:30;-2.60;99.90
5200;DHT22;2619;47.868;11.892;2023-02-27T05:18:04;-2.50;99.90
5200;DHT22;2619;47.868;11.892;2023-02-27T05:23:16;-2.50;99.90
5200;DHT22;2619;47.868;11.892;2023-02-27T05:26:00;-2.50;99.90
5200;DHT22;2619;47.868;11.892;2023-02-27T05:28:57;-2.50;99.90
5200;DHT22;2619;47.868;11.892;2023-02-27T05:33:58;-2.50;99.90
5200;DHT22;2619;47.868;11.892;2023-02-27T05:36:33;-2.50;99.90
5200;DHT22;2619;47.868;11.892;2023-02-27T05:39:03;-2.50;99.90
5200;DHT22;2619;47.868;11.892;2023-02-27T05:41:37;-2.50;99.90
5200;DHT22;2619;47.868;11.892;2023-02-27T05:44:32;-2.50;99.90
5200;DHT22;2619;47.868;11.892;2023-02-27T05:46:59;-2.50;99.90
5200;DHT22;2619;47.868;11.892;2023-02-27T05:49:42;-2.50;99.90
5200;DHT22;2619;47.868;11.892;2023-02-27T05:52:12;-2.50;99.90
5200;DHT22;2619;47.868;11.892;2023-02-27T05:54:55;-2.50;99.90
5200;DHT22;2619;47.868;11.892;2023-02-27T05:57:29;-2.40;99.90
5200;DHT22;2619;47.868;11.892;2023-02-27T06:00:15;-2.40;99.90
5200;DHT22;2619;47.868;11.892;2023-02-27T06:02:44;-2.40;99.90
5200;DHT22;2619;47.868;11.892;2023-02-27T06:05:10;-2.30;99.90
5200;DHT22;2619;47.868;11.892;2023-02-27T06:07:37;-2.40;99.90
5200;DHT22;2619;47.868;11.892;2023-02-27T06:10:04;-2.30;99.90
5200;DHT22;2619;47.868;11.892;2023-02-27T06:12:30;-2.30;99.90
5200;DHT22;2619;47.868;11.892;2023-02-27T06:14:56;-2.30;99.90
5200;DHT22;2619;47.868;11.892;2023-02-27T06:17:21;-2.20;99.90
5200;DHT22;2619;47.868;11.892;2023-02-27T06:19:47;-2.20;99.90
5200;DHT22;2619;47.868;11.892;2023-02-27T06:22:13;-2.10;99.90
5200;DHT22;2619;47.868;11.892;2023-02-27T06:24:38;-2.10;99.90
5200;DHT22;2619;47.868;11.892;2023-02-27T06:27:04;-2.10;99.90
5200;DHT22;2619;47.868;11.892;2023-02-27T06:29:29;-2.00;99.90
5200;DHT22;2619;47.868;11.892;2023-02-27T06:31:55;-2.00;99.90
5200;DHT22;2619;47.868;11.892;2023-02-27T06:34:21;-1.90;99.90
5200;DHT22;2619;47.868;11.892;2023-02-27T06:36:46;-1.90;99.90
5200;DHT22;2619;47.868;11.892;2023-02-27T06:39:13;-2.00;99.90
5200;DHT22;2619;47.868;11.892;2023-02-27T06:41:39;-2.00;99.90
5200;DHT22;2619;47.868;11.892;2023-02-27T06:44:04;-1.90;99.90
5200;DHT22;2619;47.868;11.892;2023-02-27T06:46:30;-1.90;99.90
5200;DHT22;2619;47.868;11.892;2023-02-27T06:48:55;-1.80;99.90
5200;DHT22;2619;47.868;11.892;2023-02-27T06:51:21;-1.80;99.90
5200;DHT22;2619;47.868;11.892;2023-02-27T06:53:47;-1.80;99.90
5200;DHT22;2619;47.868;11.892;2023-02-27T06:56:12;-1.80;99.90
5200;DHT22;2619;47.868;11.892;2023-02-27T06:58:38;-1.80;99.90
5200;DHT22;2619;47.868;11.892;2023-02-27T07:01:04;-1.80;99.90
5200;DHT22;2619;47.868;11.892;2023-02-27T07:03:29;-1.70;99.90
5200;DHT22;2619;47.868;11.892;2023-02-27T07:05:56;-1.70;99.90
5200;DHT22;2619;47.868;11.892;2023-02-27T07:08:22;-1.70;99.90
5200;DHT22;2619;47.868;11.892;2023-02-27T07:10:48;-1.70;99.90
5200;DHT22;2619;47.868;11.892;2023-02-27T07:13:14;-1.70;99.90
5200;DHT22;2619;47.868;11.892;2023-02-27T07:15:39;-1.60;99.90
5200;DHT22;2619;47.868;11.892;2023-02-27T07:18:05;-1.60;99.90
5200;DHT22;2619;47.868;11.892;2023-02-27T07:20:30;-1.60;99.90
5200;DHT22;2619;47.868;11.892;2023-02-27T07:22:56;-1.60;99.90
5200;DHT22;2619;47.868;11.892;2023-02-27T07:25:21;-1.50;99.90
5200;DHT22;2619;47.868;11.892;2023-02-27T07:27:47;-1.50;99.90
5200;DHT22;2619;47.868;11.892;2023-02-27T07:30:15;-1.40;99.90
5200;DHT22;2619;47.868;11.892;2023-02-27T07:32:41;-1.40;99.90
5200;DHT22;2619;47.868;11.892;2023-02-27T07:35:07;-1.20;99.90
5200;DHT22;2619;47.868;11.892;2023-02-27T07:37:33;-1.10;99.90
5200;DHT22;2619;47.868;11.892;2023-02-27T07:39:59;-1.10;99.90
5200;DHT22;2619;47.868;11.892;2023-02-27T07:42:24;-1.00;99.90
5200;DHT22;2619;47.868;11.892;2023-02-27T07:44:50;-0.90;99.90
5200;DHT22;2619;47.868;11.892;2023-02-27T07:47:15;-0.80;99.90
5200;DHT22;2619;47.868;11.892;2023-02-27T07:49:42;-0.90;99.90
5200;DHT22;2619;47.868;11.892;2023-02-27T07:52:08;-0.80;99.90
5200;DHT22;2619;47.868;11.892;2023-02-27T07:54:33;-0.70;99.90
5200;DHT22;2619;47.868;11.892;2023-02-27T07:57:02;-0.60;99.90
5200;DHT22;2619;47.868;11.892;2023-02-27T07:59:28;-0.70;99.90
5200;DHT22;2619;47.868;11.892;2023-02-27T08:01:53;-0.50;99.90
5200;DHT22;2619;47.868;11.892;2023-02-27T08:04:19;-0.30;99.90
5200;DHT22;2619;47.868;11.892;2023-02-27T08:06:45;-0.30;99.90
5200;DHT22;2619;47.868;11.892;2023-02-27T08:09:10;-0.40;99.90
5200;DHT22;2619;47.868;11.892;2023-02-27T08:11:36;-0.40;99.90
5200;DHT22;2619;47.868;11.892;2023-02-27T08:14:02;-0.30;99.90
5200;DHT22;2619;47.868;11.892;2023-02-27T08:16:27;-0.20;99.90
5200;DHT22;2619;47.868;11.892;2023-02-27T08:18:54;-0.30;99.90
5200;DHT22;2619;47.868;11.892;2023-02-27T08:21:20;-0.20;99.90
5200;DHT22;2619;47.868;11.892;2023-02-27T08:23:45;-0.30;99.90
5200;DHT22;2619;47.868;11.892;2023-02-27T08:26:11;-0.30;99.90
5200;DHT22;2619;47.868;11.892;2023-02-27T08:28:37;-0.20;99.90
5200;DHT22;2619;47.868;11.892;2023-02-27T08:31:02;-0.20;99.90
5200;DHT22;2619;47.868;11.892;2023-02-27T08:33:28;-0.30;99.90
5200;DHT22;2619;47.868;11.892;2023-02-27T08:35:53;-0.20;99.90
5200;DHT22;2619;47.868;11.892;2023-02-27T08:38:20;-0.30;99.90
5200;DHT22;2619;47.868;11.892;2023-02-27T08:40:46;-0.40;99.90
5200;DHT22;2619;47.868;11.892;2023-02-27T08:43:11;-0.40;99.90
5200;DHT22;2619;47.868;11.892;2023-02-27T08:45:37;-0.40;99.90
5200;DHT22;2619;47.868;11.892;2023-02-27T08:48:02;-0.30;99.90
5200;DHT22;2619;47.868;11.892;2023-02-27T08:50:28;-0.20;99.90
5200;DHT22;2619;47.868;11.892;2023-02-27T08:52:53;-0.40;99.90
5200;DHT22;2619;47.868;11.892;2023-02-27T08:55:19;-0.50;99.90
5200;DHT22;2619;47.868;11.892;2023-02-27T08:57:45;-0.30;99.90
5200;DHT22;2619;47.868;11.892;2023-02-27T09:00:11;-0.10;99.90
5200;DHT22;2619;47.868;11.892;2023-02-27T09:02:39;0.10;99.90
5200;DHT22;2619;47.868;11.892;2023-02-27T09:05:05;0.20;99.90
5200;DHT22;2619;47.868;11.892;2023-02-27T09:07:31;0.10;99.90
5200;DHT22;2619;47.868;11.892;2023-02-27T09:09:58;0.10;99.90
5200;DHT22;2619;47.868;11.892;2023-02-27T09:12:24;-0.10;99.90
5200;DHT22;2619;47.868;11.892;2023-02-27T09:14:50;-0.30;99.90
5200;DHT22;2619;47.868;11.892;2023-02-27T09:17:15;-0.30;99.90
5200;DHT22;2619;47.868;11.892;2023-02-27T09:19:41;-0.20;99.90
5200;DHT22;2619;47.868;11.892;2023-02-27T09:22:06;-0.10;99.90
5200;DHT22;2619;47.868;11.892;2023-02-27T09:24:32;-0.10;99.90
5200;DHT22;2619;47.868;11.892;2023-02-27T09:26:57;-0.20;99.90
5200;DHT22;2619;47.868;11.892;2023-02-27T09:29:23;-0.10;99.90
5200;DHT22;2619;47.868;11.892;2023-02-27T09:31:50;-0.10;99.90
5200;DHT22;2619;47.868;11.892;2023-02-27T09:34:16;-0.10;99.90
5200;DHT22;2619;47.868;11.892;2023-02-27T09:36:41;-0.20;99.90
5200;DHT22;2619;47.868;11.892;2023-02-27T09:39:07;-0.20;99.90
5200;DHT22;2619;47.868;11.892;2023-02-27T09:47:05;0.20;99.90
5200;DHT22;2619;47.868;11.892;2023-02-27T09:49:40;0.40;99.90
5200;DHT22;2619;47.868;11.892;2023-02-27T09:52:11;0.20;99.90
5200;DHT22;2619;47.868;11.892;2023-02-27T09:54:38;0.10;99.90
5200;DHT22;2619;47.868;11.892;2023-02-27T09:57:05;-0.10;99.90
5200;DHT22;2619;47.868;11.892;2023-02-27T09:59:47;-0.10;99.90
5200;DHT22;2619;47.868;11.892;2023-02-27T10:07:43;0.00;99.90
5200;DHT22;2619;47.868;11.892;2023-02-27T10:10:43;0.10;99.90
5200;DHT22;2619;47.868;11.892;2023-02-27T10:13:29;0.30;99.90
5200;DHT22;2619;47.868;11.892;2023-02-27T10:15:58;0.40;99.90
5200;DHT22;2619;47.868;11.892;2023-02-27T10:18:29;0.30;99.90
5200;DHT22;2619;47.868;11.892;2023-02-27T10:20:59;0.30;99.90
5200;DHT22;2619;47.868;11.892;2023-02-27T10:23:40;0.10;99.90
5200;DHT22;2619;47.868;11.892;2023-02-27T10:26:19;0.40;99.90
5200;DHT22;2619;47.868;11.892;2023-02-27T10:28:45;0.20;99.90
5200;DHT22;2619;47.868;11.892;2023-02-27T10:31:17;0.40;99.90
5200;DHT22;2619;47.868;11.892;2023-02-27T10:33:45;0.50;99.90
5200;DHT22;2619;47.868;11.892;2023-02-27T10:36:13;0.50;99.90
5200;DHT22;2619;47.868;11.892;2023-02-27T10:38:56;0.70;99.90
5200;DHT22;2619;47.868;11.892;2023-02-27T10:41:23;0.50;99.90
5200;DHT22;2619;47.868;11.892;2023-02-27T10:43:52;0.50;99.90
5200;DHT22;2619;47.868;11.892;2023-02-27T10:46:30;0.60;99.90
5200;DHT22;2619;47.868;11.892;2023-02-27T10:49:01;0.60;99.90
5200;DHT22;2619;47.868;11.892;2023-02-27T10:51:34;0.80;99.90
5200;DHT22;2619;47.868;11.892;2023-02-27T10:56:54;0.70;99.90
5200;DHT22;2619;47.868;11.892;2023-02-27T10:59:37;0.50;99.90
5200;DHT22;2619;47.868;11.892;2023-02-27T11:04:46;0.70;99.90
5200;DHT22;2619;47.868;11.892;2023-02-27T11:07:13;0.20;99.90
5200;DHT22;2619;47.868;11.892;2023-02-27T11:09:42;0.10;99.90
5200;DHT22;2619;47.868;11.892;2023-02-27T11:12:27;0.10;99.90
5200;DHT22;2619;47.868;11.892;2023-02-27T11:15:02;0.20;99.90
5200;DHT22;2619;47.868;11.892;2023-02-27T11:19:55;0.60;99.90
5200;DHT22;2619;47.868;11.892;2023-02-27T11:22:22;0.50;99.90
5200;DHT22;2619;47.868;11.892;2023-02-27T11:24:50;0.60;99.90
5200;DHT22;2619;47.868;11.892;2023-02-27T11:27:28;0.70;99.90
5200;DHT22;2619;47.868;11.892;2023-02-27T11:32:23;0.70;99.90
5200;DHT22;2619;47.868;11.892;2023-02-27T11:34:51;0.70;99.90
5200;DHT22;2619;47.868;11.892;2023-02-27T11:37:29;0.80;99.90
5200;DHT22;2619;47.868;11.892;2023-02-27T11:42:31;0.80;99.90
5200;DHT22;2619;47.868;11.892;2023-02-27T11:47:31;0.40;99.90
5200;DHT22;2619;47.868;11.892;2023-02-27T11:53:00;0.60;99.90
5200;DHT22;2619;47.868;11.892;2023-02-27T11:55:31;0.50;99.90
5200;DHT22;2619;47.868;11.892;2023-02-27T11:58:18;0.90;99.90
5200;DHT22;2619;47.868;11.892;2023-02-27T12:00:49;1.00;99.90
5200;DHT22;2619;47.868;11.892;2023-02-27T12:03:26;1.00;99.90
5200;DHT22;2619;47.868;11.892;2023-02-27T12:05:58;1.20;99.90
5200;DHT22;2619;47.868;11.892;2023-02-27T12:08:42;1.00;99.90
5200;DHT22;2619;47.868;11.892;2023-02-27T12:11:23;1.00;99.90
5200;DHT22;2619;47.868;11.892;2023-02-27T12:14:10;1.00;99.90
5200;DHT22;2619;47.868;11.892;2023-02-27T12:16:45;0.90;99.90
5200;DHT22;2619;47.868;11.892;2023-02-27T12:22:19;1.00;99.90
5200;DHT22;2619;47.868;11.892;2023-02-27T12:24:51;1.10;99.90
5200;DHT22;2619;47.868;11.892;2023-02-27T12:27:28;1.30;99.90
5200;DHT22;2619;47.868;11.892;2023-02-27T12:30:13;1.50;99.90
5200;DHT22;2619;47.868;11.892;2023-02-27T12:32:48;1.50;99.90
5200;DHT22;2619;47.868;11.892;2023-02-27T12:35:35;1.20;99.90
5200;DHT22;2619;47.868;11.892;2023-02-27T12:38:01;0.80;99.90
5200;DHT22;2619;47.868;11.892;2023-02-27T12:40:36;1.00;99.90
5200;DHT22;2619;47.868;11.892;2023-02-27T12:46:14;1.10;99.90
5200;DHT22;2619;47.868;11.892;2023-02-27T12:48:57;0.80;99.90
5200;DHT22;2619;47.868;11.892;2023-02-27T12:51:47;0.50;99.90
5200;DHT22;2619;47.868;11.892;2023-02-27T12:57:29;0.40;99.90
5200;DHT22;2619;47.868;11.892;2023-02-27T13:00:25;0.30;99.90
5200;DHT22;2619;47.868;11.892;2023-02-27T13:03:12;0.10;99.90
5200;DHT22;2619;47.868;11.892;2023-02-27T13:05:42;-0.10;99.90
5200;DHT22;2619;47.868;11.892;2023-02-27T13:13:55;0.00;99.90
5200;DHT22;2619;47.868;11.892;2023-02-27T13:16:50;-0.30;99.90
5200;DHT22;2619;47.868;11.892;2023-02-27T13:19:39;-0.30;99.90
5200;DHT22;2619;47.868;11.892;2023-02-27T13:24:59;-0.10;99.90
5200;DHT22;2619;47.868;11.892;2023-02-27T13:27:40;0.00;99.90
5200;DHT22;2619;47.868;11.892;2023-02-27T13:30:12;0.20;99.90
5200;DHT22;2619;47.868;11.892;2023-02-27T13:32:53;0.30;99.90
5200;DHT22;2619;47.868;11.892;2023-02-27T13:38:45;0.50;99.90
5200;DHT22;2619;47.868;11.892;2023-02-27T13:43:47;0.20;99.90
5200;DHT22;2619;47.868;11.892;2023-02-27T13:49:20;0.10;99.90
5200;DHT22;2619;47.868;11.892;2023-02-27T13:51:48;0.30;99.90
5200;DHT22;2619;47.868;11.892;2023-02-27T13:56:49;0.50;99.90
5200;DHT22;2619;47.868;11.892;2023-02-27T13:59:33;0.40;99.90
5200;DHT22;2619;47.868;11.892;2023-02-27T14:04:32;0.50;99.90
5200;DHT22;2619;47.868;11.892;2023-02-27T14:07:02;0.60;99.90
5200;DHT22;2619;47.868;11.892;2023-02-27T14:09:33;0.60;99.90
5200;DHT22;2619;47.868;11.892;2023-02-27T14:12:03;0.60;99.90
5200;DHT22;2619;47.868;11.892;2023-02-27T14:14:47;0.60;99.90
5200;DHT22;2619;47.868;11.892;2023-02-27T14:20:09;0.60;99.90
5200;DHT22;2619;47.868;11.892;2023-02-27T14:25:31;0.60;99.90
5200;DHT22;2619;47.868;11.892;2023-02-27T14:27:58;0.60;99.90
5200;DHT22;2619;47.868;11.892;2023-02-27T14:30:35;0.50;99.90
5200;DHT22;2619;47.868;11.892;2023-02-27T14:33:23;0.50;99.90
5200;DHT22;2619;47.868;11.892;2023-02-27T14:36:01;0.30;99.90
5200;DHT22;2619;47.868;11.892;2023-02-27T14:38:28;-0.20;99.90
5200;DHT22;2619;47.868;11.892;2023-02-27T14:41:13;-0.30;99.90
5200;DHT22;2619;47.868;11.892;2023-02-27T14:43:44;-0.40;99.90
5200;DHT22;2619;47.868;11.892;2023-02-27T14:48:38;-0.40;99.90
5200;DHT22;2619;47.868;11.892;2023-02-27T14:51:04;-0.30;99.90
5200;DHT22;2619;47.868;11.892;2023-02-27T14:53:30;-0.40;99.90
5200;DHT22;2619;47.868;11.892;2023-02-27T14:55:58;-0.40;99.90
5200;DHT22;2619;47.868;11.892;2023-02-27T14:58:25;-0.20;99.90
5200;DHT22;2619;47.868;11.892;2023-02-27T15:01:01;-0.20;99.90
5200;DHT22;2619;47.868;11.892;2023-02-27T15:03:34;-0.40;99.90
5200;DHT22;2619;47.868;11.892;2023-02-27T15:06:04;-0.30;99.90
5200;DHT22;2619;47.868;11.892;2023-02-27T15:08:38;-0.30;99.90
5200;DHT22;2619;47.868;11.892;2023-02-27T15:11:05;-0.20;99.90
5200;DHT22;2619;47.868;11.892;2023-02-27T15:13:33;-0.30;99.90
5200;DHT22;2619;47.868;11.892;2023-02-27T15:18:47;-0.40;99.90
5200;DHT22;2619;47.868;11.892;2023-02-27T15:21:15;-0.30;99.90
5200;DHT22;2619;47.868;11.892;2023-02-27T15:23:41;-0.20;99.90
5200;DHT22;2619;47.868;11.892;2023-02-27T15:26:11;-0.20;99.90
5200;DHT22;2619;47.868;11.892;2023-02-27T15:28:38;-0.30;99.90
5200;DHT22;2619;47.868;11.892;2023-02-27T15:31:07;-0.30;99.90
5200;DHT22;2619;47.868;11.892;2023-02-27T15:33:34;-0.30;99.90
5200;DHT22;2619;47.868;11.892;2023-02-27T15:36:00;-0.40;99.90
5200;DHT22;2619;47.868;11.892;2023-02-27T15:38:32;-0.50;99.90
5200;DHT22;2619;47.868;11.892;2023-02-27T15:40:59;-0.60;99.90
5200;DHT22;2619;47.868;11.892;2023-02-27T15:43:27;-0.70;99.90
5200;DHT22;2619;47.868;11.892;2023-02-27T15:45:54;-0.70;99.90
5200;DHT22;2619;47.868;11.892;2023-02-27T15:48:20;-0.60;99.90
5200;DHT22;2619;47.868;11.892;2023-02-27T15:50:48;-0.60;99.90
5200;DHT22;2619;47.868;11.892;2023-02-27T15:53:23;-0.60;99.90
5200;DHT22;2619;47.868;11.892;2023-02-27T15:56:00;-0.60;99.90
5200;DHT22;2619;47.868;11.892;2023-02-27T15:58:33;-0.70;99.90
5200;DHT22;2619;47.868;11.892;2023-02-27T16:01:06;-0.80;99.90
5200;DHT22;2619;47.868;11.892;2023-02-27T16:03:36;-1.00;99.90
5200;DHT22;2619;47.868;11.892;2023-02-27T16:06:09;-1.10;99.90
5200;DHT22;2619;47.868;11.892;2023-02-27T16:08:39;-1.30;99.90
5200;DHT22;2619;47.868;11.892;2023-02-27T16:11:21;-1.40;99.90
5200;DHT22;2619;47.868;11.892;2023-02-27T16:13:47;-1.40;99.90
5200;DHT22;2619;47.868;11.892;2023-02-27T16:21:18;-1.60;99.90
5200;DHT22;2619;47.868;11.892;2023-02-27T16:23:45;-1.50;99.90
5200;DHT22;2619;47.868;11.892;2023-02-27T16:26:32;-1.50;99.90
5200;DHT22;2619;47.868;11.892;2023-02-27T16:29:05;-1.50;99.90
5200;DHT22;2619;47.868;11.892;2023-02-27T16:31:39;-1.60;99.90
5200;DHT22;2619;47.868;11.892;2023-02-27T16:37:05;-1.60;99.90
5200;DHT22;2619;47.868;11.892;2023-02-27T16:39:32;-1.60;99.90
5200;DHT22;2619;47.868;11.892;2023-02-27T16:42:00;-1.60;99.90
5200;DHT22;2619;47.868;11.892;2023-02-27T16:44:26;-1.60;99.90
5200;DHT22;2619;47.868;11.892;2023-02-27T16:46:54;-1.60;99.90
5200;DHT22;2619;47.868;11.892;2023-02-27T16:51:47;-1.60;99.90
5200;DHT22;2619;47.868;11.892;2023-02-27T16:54:13;-1.60;99.90
5200;DHT22;2619;47.868;11.892;2023-02-27T16:56:41;-1.60;99.90
5200;DHT22;2619;47.868;11.892;2023-02-27T16:59:08;-1.60;99.90
5200;DHT22;2619;47.868;11.892;2023-02-27T17:01:39;-1.70;99.90
5200;DHT22;2619;47.868;11.892;2023-02-27T17:04:05;-1.80;99.90
5200;DHT22;2619;47.868;11.892;2023-02-27T17:06:31;-1.80;99.90
5200;DHT22;2619;47.868;11.892;2023-02-27T17:08:57;-1.80;99.90
5200;DHT22;2619;47.868;11.892;2023-02-27T17:11:22;-1.90;99.90
5200;DHT22;2619;47.868;11.892;2023-02-27T17:13:48;-1.90;99.90
5200;DHT22;2619;47.868;11.892;2023-02-27T17:16:14;-1.90;99.90
5200;DHT22;2619;47.868;11.892;2023-02-27T17:18:39;-1.90;99.90
5200;DHT22;2619;47.868;11.892;2023-02-27T17:21:05;-1.90;99.90
5200;DHT22;2619;47.868;11.892;2023-02-27T17:23:31;-1.80;99.90
5200;DHT22;2619;47.868;11.892;2023-02-27T17:25:56;-1.80;99.90
5200;DHT22;2619;47.868;11.892;2023-02-27T17:28:22;-1.80;99.90
5200;DHT22;2619;47.868;11.892;2023-02-27T17:30:48;-1.80;99.90
5200;DHT22;2619;47.868;11.892;2023-02-27T17:33:15;-1.80;99.90
5200;DHT22;2619;47.868;11.892;2023-02-27T17:35:40;-1.80;99.90
5200;DHT22;2619;47.868;11.892;2023-02-27T17:38:06;-1.80;99.90
5200;DHT22;2619;47.868;11.892;2023-02-27T17:40:32;-1.80;99.90
5200;DHT22;2619;47.868;11.892;2023-02-27T17:42:59;-1.80;99.90
5200;DHT22;2619;47.868;11.892;2023-02-27T17:45:25;-1.80;99.90
5200;DHT22;2619;47.868;11.892;2023-02-27T17:47:52;-1.80;99.90
5200;DHT22;2619;47.868;11.892;2023-02-27T17:50:17;-1.80;99.90
5200;DHT22;2619;47.868;11.892;2023-02-27T17:52:43;-1.80;99.90
5200;DHT22;2619;47.868;11.892;2023-02-27T17:55:10;-1.90;99.90
5200;DHT22;2619;47.868;11.892;2023-02-27T17:57:37;-1.90;99.90
5200;DHT22;2619;47.868;11.892;2023-02-27T18:00:08;-1.90;99.90
5200;DHT22;2619;47.868;11.892;2023-02-27T18:02:35;-1.90;99.90
5200;DHT22;2619;47.868;11.892;2023-02-27T18:05:02;-1.90;99.90
5200;DHT22;2619;47.868;11.892;2023-02-27T18:07:29;-1.80;99.90
5200;DHT22;2619;47.868;11.892;2023-02-27T18:09:55;-1.80;99.90
5200;DHT22;2619;47.868;11.892;2023-02-27T18:12:20;-1.80;99.90
5200;DHT22;2619;47.868;11.892;2023-02-27T18:14:46;-1.80;99.90
5200;DHT22;2619;47.868;11.892;2023-02-27T18:17:12;-1.90;99.90
5200;DHT22;2619;47.868;11.892;2023-02-27T18:19:39;-1.90;99.90
5200;DHT22;2619;47.868;11.892;2023-02-27T18:22:06;-1.90;99.90
5200;DHT22;2619;47.868;11.892;2023-02-27T18:24:33;-1.80;99.90
5200;DHT22;2619;47.868;11.892;2023-02-27T18:26:59;-1.80;99.90
5200;DHT22;2619;47.868;11.892;2023-02-27T18:29:24;-1.80;99.90
5200;DHT22;2619;47.868;11.892;2023-02-27T18:31:50;-1.80;99.90
5200;DHT22;2619;47.868;11.892;2023-02-27T18:34:19;-1.90;99.90
5200;DHT22;2619;47.868;11.892;2023-02-27T18:36:45;-1.90;99.90